soloimprenta.es alexa rank chart, soloimprenta.es alexa rank daily changes

soloimprenta.es alexa rank chart, soloimprenta.es alexa rank daily changes

soloimprenta.es
Actual rank:
208 399

RANK HISTORY

Date Rank Diff
2017/12/11 208 399 +4 222
2017/12/10 204 177 +5 284
2017/12/09 198 893 +6 716
2017/12/08 192 177 +9 418
2017/12/07 182 759 -6 343
2017/12/06 189 102 -7 263
2017/12/05 196 365 +1 649
2017/12/04 194 716 +7 042
2017/12/03 187 674 -3 479
2017/12/02 191 153 +6 440
2017/12/01 184 713 +142
2017/11/30 184 571 -4 439
2017/11/29 189 010 -1 887
2017/11/28 190 897 +4 368
2017/11/27 186 529 +4 153
2017/11/26 182 376 +7 804
2017/11/25 174 572 +4 414
2017/11/24 170 158 -366
2017/11/23 170 524 -5 631
2017/11/22 176 155 -754
2017/11/21 176 909 +2 322
2017/11/20 174 587 +6 802
2017/11/19 167 785 +4 387
2017/11/18 163 398 -739
2017/11/17 164 137 -5 712
2017/11/16 169 849 -4 776
2017/11/15 174 625 +992
2017/11/14 173 633 +2 454
2017/11/13 171 179 +5 424
2017/11/12 165 755 -3 404
2017/11/11 169 159 +3 704
2017/11/10 165 455 -3 456
2017/11/09 168 911 -6 555
2017/11/08 175 466 -1 403
2017/11/07 176 869 +8 615
2017/11/06 168 254 +2 946
2017/11/05 165 308 +3 505
2017/11/04 161 803 +2 676
2017/11/03 159 127 +1 610
2017/11/02 157 517 -7 801
2017/11/01 165 318 -3 424
2017/10/31 168 742 +4 865
2017/10/30 163 877 +7 839
2017/10/29 156 038 +2 499
2017/10/28 153 539 -3 291
2017/10/27 156 830 -823
2017/10/26 157 653 -3 601
2017/10/25 161 254 -6 197
2017/10/24 167 451 +2 202
2017/10/23 165 249 +6 488
2017/10/22 158 761 -707
2017/10/21 159 468 +2 996
2017/10/20 156 472 -5 994
2017/10/19 162 466 -4 773
2017/10/18 167 239 -4 507
2017/10/17 171 746 +3 113
2017/10/16 168 633 +3 467
2017/10/14 165 166 -589
2017/10/13 165 755 -3 517
2017/10/12 169 272

WIDGET FOR YOUR SITE

DOMAINS WITH THE NEAREST RANK

Domain Rank
liriklagudewi.blogspot.co.id 208 394
androidgo.fun 208 395
startupstockphotos.com 208 396
fannikar.com 208 397
malaflanrab.ru 208 398
soloimprenta.es 208 399
zemagazin.hu 208 400
ctfx.jp 208 401
1888pressrelease.com 208 402
bankdariirani.ir 208 403
mutah.edu.jo 208 404

DOMAINS WITH THE NEAREST RANK BY TLD .es

Domain Rank
dns-privadas.es 206 975
axon.es 207 012
ehtio.es 207 310
tecnocasa.es 207 408
mapa.es 207 720
soloimprenta.es 208 399
nextn.es 208 592
tiempoytemperatura.es 208 714
maxvideos.es 208 946
buen-polvo.es 209 114
guialowcost.es 209 223